sensor_id;sensor_type;location;lat;lon;timestamp;temperature;humidity
67093;SHT31;54011;50.772;7.730;2023-09-19T00:00:23;20.90;72.42
67093;SHT31;54011;50.772;7.730;2023-09-19T00:02:56;21.09;71.56
67093;SHT31;54011;50.772;7.730;2023-09-19T00:05:23;20.75;71.80
67093;SHT31;54011;50.772;7.730;2023-09-19T00:07:52;20.80;70.81
67093;SHT31;54011;50.772;7.730;2023-09-19T00:10:23;21.06;70.75
67093;SHT31;54011;50.772;7.730;2023-09-19T00:12:51;20.81;70.77
67093;SHT31;54011;50.772;7.730;2023-09-19T00:15:18;20.82;70.27
67093;SHT31;54011;50.772;7.730;2023-09-19T00:17:44;20.58;70.61
67093;SHT31;54011;50.772;7.730;2023-09-19T00:20:10;20.63;69.93
67093;SHT31;54011;50.772;7.730;2023-09-19T00:22:41;20.81;69.69
67093;SHT31;54011;50.772;7.730;2023-09-19T00:25:11;20.64;69.88
67093;SHT31;54011;50.772;7.730;2023-09-19T00:27:40;20.61;69.90
67093;SHT31;54011;50.772;7.730;2023-09-19T00:30:12;20.65;69.42
67093;SHT31;54011;50.772;7.730;2023-09-19T00:32:47;20.85;69.09
67093;SHT31;54011;50.772;7.730;2023-09-19T00:35:14;20.70;69.54
67093;SHT31;54011;50.772;7.730;2023-09-19T00:37:41;20.75;69.57
67093;SHT31;54011;50.772;7.730;2023-09-19T00:40:08;20.43;69.74
67093;SHT31;54011;50.772;7.730;2023-09-19T00:42:57;20.55;69.59
67093;SHT31;54011;50.772;7.730;2023-09-19T00:45:25;20.37;69.77
67093;SHT31;54011;50.772;7.730;2023-09-19T00:47:51;20.33;69.60
67093;SHT31;54011;50.772;7.730;2023-09-19T00:50:18;19.96;70.67
67093;SHT31;54011;50.772;7.730;2023-09-19T00:52:46;20.47;69.18
67093;SHT31;54011;50.772;7.730;2023-09-19T00:55:14;19.89;70.46
67093;SHT31;54011;50.772;7.730;2023-09-19T00:57:40;20.24;69.17
67093;SHT31;54011;50.772;7.730;2023-09-19T01:00:07;20.41;68.59
67093;SHT31;54011;50.772;7.730;2023-09-19T01:02:35;20.37;68.91
67093;SHT31;54011;50.772;7.730;2023-09-19T01:05:01;20.16;68.68
67093;SHT31;54011;50.772;7.730;2023-09-19T01:07:30;20.06;68.59
67093;SHT31;54011;50.772;7.730;2023-09-19T01:09:59;20.05;68.59
67093;SHT31;54011;50.772;7.730;2023-09-19T01:15:28;20.12;68.43
67093;SHT31;54011;50.772;7.730;2023-09-19T01:18:03;20.12;68.09
67093;SHT31;54011;50.772;7.730;2023-09-19T01:20:45;20.03;67.85
67093;SHT31;54011;50.772;7.730;2023-09-19T01:23:55;20.39;67.53
67093;SHT31;54011;50.772;7.730;2023-09-19T01:31:57;20.39;68.16
67093;SHT31;54011;50.772;7.730;2023-09-19T01:34:26;20.30;67.78
67093;SHT31;54011;50.772;7.730;2023-09-19T01:36:52;20.51;68.57
67093;SHT31;54011;50.772;7.730;2023-09-19T01:39:17;20.41;67.84
67093;SHT31;54011;50.772;7.730;2023-09-19T01:47:28;20.24;68.14
67093;SHT31;54011;50.772;7.730;2023-09-19T01:53:02;20.74;67.63
67093;SHT31;54011;50.772;7.730;2023-09-19T01:55:30;20.24;68.03
67093;SHT31;54011;50.772;7.730;2023-09-19T02:01:19;20.39;67.60
67093;SHT31;54011;50.772;7.730;2023-09-19T02:03:48;20.44;67.54
67093;SHT31;54011;50.772;7.730;2023-09-19T02:06:14;20.12;68.32
67093;SHT31;54011;50.772;7.730;2023-09-19T02:08:41;20.34;67.82
67093;SHT31;54011;50.772;7.730;2023-09-19T02:11:06;20.14;68.30
67093;SHT31;54011;50.772;7.730;2023-09-19T02:13:36;20.51;67.35
67093;SHT31;54011;50.772;7.730;2023-09-19T02:16:03;20.26;68.39
67093;SHT31;54011;50.772;7.730;2023-09-19T02:18:30;20.60;67.60
67093;SHT31;54011;50.772;7.730;2023-09-19T02:20:56;20.74;67.57
67093;SHT31;54011;50.772;7.730;2023-09-19T02:23:24;20.82;67.26
67093;SHT31;54011;50.772;7.730;2023-09-19T02:25:59;20.51;67.47
67093;SHT31;54011;50.772;7.730;2023-09-19T02:28:29;20.37;68.34
67093;SHT31;54011;50.772;7.730;2023-09-19T02:30:56;20.17;68.47
67093;SHT31;54011;50.772;7.730;2023-09-19T02:33:22;20.27;68.26
67093;SHT31;54011;50.772;7.730;2023-09-19T02:35:54;20.58;68.77
67093;SHT31;54011;50.772;7.730;2023-09-19T02:38:20;20.26;67.53
67093;SHT31;54011;50.772;7.730;2023-09-19T02:40:50;20.41;68.09
67093;SHT31;54011;50.772;7.730;2023-09-19T02:43:16;20.40;67.74
67093;SHT31;54011;50.772;7.730;2023-09-19T02:45:42;20.67;66.87
67093;SHT31;54011;50.772;7.730;2023-09-19T02:48:08;20.54;66.86
67093;SHT31;54011;50.772;7.730;2023-09-19T02:50:34;20.73;66.81
67093;SHT31;54011;50.772;7.730;2023-09-19T02:52:59;20.47;67.05
67093;SHT31;54011;50.772;7.730;2023-09-19T02:55:25;20.71;66.84
67093;SHT31;54011;50.772;7.730;2023-09-19T02:57:53;20.06;67.43
67093;SHT31;54011;50.772;7.730;2023-09-19T03:00:22;20.41;66.40
67093;SHT31;54011;50.772;7.730;2023-09-19T03:05:14;20.43;66.71
67093;SHT31;54011;50.772;7.730;2023-09-19T03:07:40;20.95;66.09
67093;SHT31;54011;50.772;7.730;2023-09-19T03:10:08;20.44;65.75
67093;SHT31;54011;50.772;7.730;2023-09-19T03:12:38;19.97;66.37
67093;SHT31;54011;50.772;7.730;2023-09-19T03:15:06;20.48;65.94
67093;SHT31;54011;50.772;7.730;2023-09-19T03:17:34;19.99;66.02
67093;SHT31;54011;50.772;7.730;2023-09-19T03:20:01;20.51;65.66
67093;SHT31;54011;50.772;7.730;2023-09-19T03:22:27;20.34;65.25
67093;SHT31;54011;50.772;7.730;2023-09-19T03:24:53;20.68;65.59
67093;SHT31;54011;50.772;7.730;2023-09-19T03:27:19;20.10;65.33
67093;SHT31;54011;50.772;7.730;2023-09-19T03:29:47;20.23;65.70
67093;SHT31;54011;50.772;7.730;2023-09-19T03:32:12;20.54;64.73
67093;SHT31;54011;50.772;7.730;2023-09-19T03:34:39;20.33;65.06
67093;SHT31;54011;50.772;7.730;2023-09-19T03:37:09;20.61;64.50
67093;SHT31;54011;50.772;7.730;2023-09-19T03:39:35;20.20;65.10
67093;SHT31;54011;50.772;7.730;2023-09-19T03:42:01;20.43;65.06
67093;SHT31;54011;50.772;7.730;2023-09-19T03:44:30;20.60;65.19
67093;SHT31;54011;50.772;7.730;2023-09-19T03:46:56;19.99;66.83
67093;SHT31;54011;50.772;7.730;2023-09-19T03:49:22;20.53;66.07
67093;SHT31;54011;50.772;7.730;2023-09-19T03:51:48;20.47;66.11
67093;SHT31;54011;50.772;7.730;2023-09-19T03:54:13;20.61;65.58
67093;SHT31;54011;50.772;7.730;2023-09-19T03:56:39;20.05;66.38
67093;SHT31;54011;50.772;7.730;2023-09-19T03:59:05;19.64;67.02
67093;SHT31;54011;50.772;7.730;2023-09-19T04:01:31;19.87;66.77
67093;SHT31;54011;50.772;7.730;2023-09-19T04:03:58;19.83;67.06
67093;SHT31;54011;50.772;7.730;2023-09-19T04:06:34;19.74;66.47
67093;SHT31;54011;50.772;7.730;2023-09-19T04:09:01;19.79;66.80
67093;SHT31;54011;50.772;7.730;2023-09-19T04:11:27;19.35;67.25
67093;SHT31;54011;50.772;7.730;2023-09-19T04:13:52;20.08;66.12
67093;SHT31;54011;50.772;7.730;2023-09-19T04:16:18;19.97;66.34
67093;SHT31;54011;50.772;7.730;2023-09-19T04:18:45;19.71;66.63
67093;SHT31;54011;50.772;7.730;2023-09-19T04:21:10;19.85;65.80
67093;SHT31;54011;50.772;7.730;2023-09-19T04:23:36;19.57;66.66
67093;SHT31;54011;50.772;7.730;2023-09-19T04:26:02;19.69;66.30
67093;SHT31;54011;50.772;7.730;2023-09-19T04:28:30;19.17;67.31
67093;SHT31;54011;50.772;7.730;2023-09-19T04:30:56;19.81;66.45
67093;SHT31;54011;50.772;7.730;2023-09-19T04:33:23;19.31;66.51
67093;SHT31;54011;50.772;7.730;2023-09-19T04:35:49;19.50;66.59
67093;SHT31;54011;50.772;7.730;2023-09-19T04:38:17;19.58;66.56
67093;SHT31;54011;50.772;7.730;2023-09-19T04:40:42;19.39;66.61
67093;SHT31;54011;50.772;7.730;2023-09-19T04:43:08;19.24;66.98
67093;SHT31;54011;50.772;7.730;2023-09-19T04:45:34;19.81;66.33
67093;SHT31;54011;50.772;7.730;2023-09-19T04:47:59;19.27;67.64
67093;SHT31;54011;50.772;7.730;2023-09-19T04:50:25;19.24;67.93
67093;SHT31;54011;50.772;7.730;2023-09-19T04:52:53;19.52;66.98
67093;SHT31;54011;50.772;7.730;2023-09-19T04:55:19;19.30;67.72
67093;SHT31;54011;50.772;7.730;2023-09-19T04:57:48;19.17;67.27
67093;SHT31;54011;50.772;7.730;2023-09-19T05:00:15;19.34;67.11
67093;SHT31;54011;50.772;7.730;2023-09-19T05:02:43;19.31;67.11
67093;SHT31;54011;50.772;7.730;2023-09-19T05:05:09;19.13;67.04
67093;SHT31;54011;50.772;7.730;2023-09-19T05:07:45;19.30;67.28
67093;SHT31;54011;50.772;7.730;2023-09-19T05:10:11;19.24;67.38
67093;SHT31;54011;50.772;7.730;2023-09-19T05:12:37;19.51;66.79
67093;SHT31;54011;50.772;7.730;2023-09-19T05:15:04;19.47;66.84
67093;SHT31;54011;50.772;7.730;2023-09-19T05:17:30;19.43;66.71
67093;SHT31;54011;50.772;7.730;2023-09-19T05:19:57;19.27;66.65
67093;SHT31;54011;50.772;7.730;2023-09-19T05:22:23;19.64;66.12
67093;SHT31;54011;50.772;7.730;2023-09-19T05:24:50;19.66;66.07
67093;SHT31;54011;50.772;7.730;2023-09-19T05:27:16;19.58;66.49
67093;SHT31;54011;50.772;7.730;2023-09-19T05:29:45;19.27;66.59
67093;SHT31;54011;50.772;7.730;2023-09-19T05:32:11;19.14;66.61
67093;SHT31;54011;50.772;7.730;2023-09-19T05:34:37;19.24;67.18
67093;SHT31;54011;50.772;7.730;2023-09-19T05:37:04;19.14;67.00
67093;SHT31;54011;50.772;7.730;2023-09-19T05:39:33;19.52;66.39
67093;SHT31;54011;50.772;7.730;2023-09-19T05:41:59;19.48;66.20
67093;SHT31;54011;50.772;7.730;2023-09-19T05:44:25;19.65;65.56
67093;SHT31;54011;50.772;7.730;2023-09-19T05:46:51;19.78;65.65
67093;SHT31;54011;50.772;7.730;2023-09-19T05:49:17;19.72;65.51
67093;SHT31;54011;50.772;7.730;2023-09-19T05:51:43;19.66;65.84
67093;SHT31;54011;50.772;7.730;2023-09-19T05:54:15;19.54;66.50
67093;SHT31;54011;50.772;7.730;2023-09-19T05:56:40;19.64;66.42
67093;SHT31;54011;50.772;7.730;2023-09-19T05:59:10;19.25;67.64
67093;SHT31;54011;50.772;7.730;2023-09-19T06:01:35;19.52;67.16
67093;SHT31;54011;50.772;7.730;2023-09-19T06:04:01;19.90;66.57
67093;SHT31;54011;50.772;7.730;2023-09-19T06:06:27;19.87;66.27
67093;SHT31;54011;50.772;7.730;2023-09-19T06:08:52;19.78;66.64
67093;SHT31;54011;50.772;7.730;2023-09-19T06:11:18;20.03;66.01
67093;SHT31;54011;50.772;7.730;2023-09-19T06:13:46;20.22;65.69
67093;SHT31;54011;50.772;7.730;2023-09-19T06:16:13;19.81;66.38
67093;SHT31;54011;50.772;7.730;2023-09-19T06:18:38;19.58;67.09
67093;SHT31;54011;50.772;7.730;2023-09-19T06:21:04;20.02;66.24
67093;SHT31;54011;50.772;7.730;2023-09-19T06:23:34;19.61;66.89
67093;SHT31;54011;50.772;7.730;2023-09-19T06:26:00;19.47;67.20
67093;SHT31;54011;50.772;7.730;2023-09-19T06:28:26;19.66;66.79
67093;SHT31;54011;50.772;7.730;2023-09-19T06:30:54;19.24;66.90
67093;SHT31;54011;50.772;7.730;2023-09-19T06:33:20;19.81;66.31
67093;SHT31;54011;50.772;7.730;2023-09-19T06:35:47;19.79;65.88
67093;SHT31;54011;50.772;7.730;2023-09-19T06:38:13;20.27;65.30
67093;SHT31;54011;50.772;7.730;2023-09-19T06:40:41;20.13;65.47
67093;SHT31;54011;50.772;7.730;2023-09-19T06:43:10;19.74;65.71
67093;SHT31;54011;50.772;7.730;2023-09-19T06:45:36;19.64;66.20
67093;SHT31;54011;50.772;7.730;2023-09-19T06:48:01;19.97;65.49
67093;SHT31;54011;50.772;7.730;2023-09-19T06:50:28;20.16;65.63
67093;SHT31;54011;50.772;7.730;2023-09-19T06:52:58;20.03;65.62
67093;SHT31;54011;50.772;7.730;2023-09-19T06:55:26;20.12;65.38
67093;SHT31;54011;50.772;7.730;2023-09-19T06:57:53;20.44;64.79
67093;SHT31;54011;50.772;7.730;2023-09-19T07:00:21;20.23;64.91
67093;SHT31;54011;50.772;7.730;2023-09-19T07:03:02;20.40;65.27
67093;SHT31;54011;50.772;7.730;2023-09-19T07:05:30;20.33;64.98
67093;SHT31;54011;50.772;7.730;2023-09-19T07:08:00;20.19;65.48
67093;SHT31;54011;50.772;7.730;2023-09-19T07:10:27;20.51;65.03
67093;SHT31;54011;50.772;7.730;2023-09-19T07:13:00;20.60;64.07
67093;SHT31;54011;50.772;7.730;2023-09-19T07:15:26;20.64;64.05
67093;SHT31;54011;50.772;7.730;2023-09-19T07:17:53;20.09;64.50
67093;SHT31;54011;50.772;7.730;2023-09-19T07:20:20;20.24;64.85
67093;SHT31;54011;50.772;7.730;2023-09-19T07:22:50;20.36;63.68
67093;SHT31;54011;50.772;7.730;2023-09-19T07:25:16;20.54;64.67
67093;SHT31;54011;50.772;7.730;2023-09-19T07:27:42;20.53;63.96
67093;SHT31;54011;50.772;7.730;2023-09-19T07:30:08;20.33;63.39
67093;SHT31;54011;50.772;7.730;2023-09-19T07:32:34;20.84;62.66
67093;SHT31;54011;50.772;7.730;2023-09-19T07:35:04;21.15;62.38
67093;SHT31;54011;50.772;7.730;2023-09-19T07:37:31;20.05;63.95
67093;SHT31;54011;50.772;7.730;2023-09-19T07:40:07;21.05;62.53
67093;SHT31;54011;50.772;7.730;2023-09-19T07:42:37;20.75;63.70
67093;SHT31;54011;50.772;7.730;2023-09-19T07:45:08;20.82;62.67
67093;SHT31;54011;50.772;7.730;2023-09-19T07:47:34;21.09;62.37
67093;SHT31;54011;50.772;7.730;2023-09-19T07:50:02;20.90;62.72
67093;SHT31;54011;50.772;7.730;2023-09-19T07:52:28;21.05;62.56
67093;SHT31;54011;50.772;7.730;2023-09-19T07:54:55;20.71;62.11
67093;SHT31;54011;50.772;7.730;2023-09-19T07:57:23;21.09;62.28
67093;SHT31;54011;50.772;7.730;2023-09-19T07:59:49;21.12;62.13
67093;SHT31;54011;50.772;7.730;2023-09-19T08:02:14;21.28;61.92
67093;SHT31;54011;50.772;7.730;2023-09-19T08:04:44;20.71;62.22
67093;SHT31;54011;50.772;7.730;2023-09-19T08:07:14;20.68;61.02
67093;SHT31;54011;50.772;7.730;2023-09-19T08:09:40;20.74;61.92
67093;SHT31;54011;50.772;7.730;2023-09-19T08:12:07;21.02;61.32
67093;SHT31;54011;50.772;7.730;2023-09-19T08:14:39;21.01;61.85
67093;SHT31;54011;50.772;7.730;2023-09-19T08:17:07;20.99;60.99
67093;SHT31;54011;50.772;7.730;2023-09-19T08:19:34;21.16;63.01
67093;SHT31;54011;50.772;7.730;2023-09-19T08:21:59;21.82;61.13
67093;SHT31;54011;50.772;7.730;2023-09-19T08:24:27;20.88;61.51
67093;SHT31;54011;50.772;7.730;2023-09-19T08:26:55;21.52;60.94
67093;SHT31;54011;50.772;7.730;2023-09-19T08:29:22;22.10;59.66
67093;SHT31;54011;50.772;7.730;2023-09-19T08:31:56;21.43;59.74
67093;SHT31;54011;50.772;7.730;2023-09-19T08:34:24;21.35;59.90
67093;SHT31;54011;50.772;7.730;2023-09-19T08:36:54;22.20;59.60
67093;SHT31;54011;50.772;7.730;2023-09-19T08:39:23;21.90;60.61
67093;SHT31;54011;50.772;7.730;2023-09-19T08:41:49;22.20;59.63
67093;SHT31;54011;50.772;7.730;2023-09-19T08:44:15;22.17;58.35
67093;SHT31;54011;50.772;7.730;2023-09-19T08:46:42;22.59;58.23
67093;SHT31;54011;50.772;7.730;2023-09-19T08:49:19;22.53;59.20
67093;SHT31;54011;50.772;7.730;2023-09-19T08:52:05;22.07;58.71
67093;SHT31;54011;50.772;7.730;2023-09-19T08:54:37;22.13;59.10
67093;SHT31;54011;50.772;7.730;2023-09-19T08:57:07;23.09;57.24
67093;SHT31;54011;50.772;7.730;2023-09-19T08:59:41;22.79;57.89
67093;SHT31;54011;50.772;7.730;2023-09-19T09:02:14;22.42;56.77
67093;SHT31;54011;50.772;7.730;2023-09-19T09:04:45;22.79;57.44
67093;SHT31;54011;50.772;7.730;2023-09-19T09:07:14;22.41;58.84
67093;SHT31;54011;50.772;7.730;2023-09-19T09:09:43;23.06;57.56
67093;SHT31;54011;50.772;7.730;2023-09-19T09:12:11;23.12;56.45
67093;SHT31;54011;50.772;7.730;2023-09-19T09:14:47;22.81;56.44
67093;SHT31;54011;50.772;7.730;2023-09-19T09:17:17;23.23;56.81
67093;SHT31;54011;50.772;7.730;2023-09-19T09:19:46;22.68;57.35
67093;SHT31;54011;50.772;7.730;2023-09-19T09:22:13;22.88;56.43
67093;SHT31;54011;50.772;7.730;2023-09-19T09:24:58;23.16;56.08
67093;SHT31;54011;50.772;7.730;2023-09-19T09:27:24;22.76;56.18
67093;SHT31;54011;50.772;7.730;2023-09-19T09:29:51;23.16;55.66
67093;SHT31;54011;50.772;7.730;2023-09-19T09:32:29;23.60;55.56
67093;SHT31;54011;50.772;7.730;2023-09-19T09:35:06;23.91;54.79
67093;SHT31;54011;50.772;7.730;2023-09-19T09:37:35;23.23;54.82
67093;SHT31;54011;50.772;7.730;2023-09-19T09:40:06;23.82;54.77
67093;SHT31;54011;50.772;7.730;2023-09-19T09:42:40;23.58;55.49
67093;SHT31;54011;50.772;7.730;2023-09-19T09:47:54;24.25;54.26
67093;SHT31;54011;50.772;7.730;2023-09-19T09:52:55;24.81;54.37
67093;SHT31;54011;50.772;7.730;2023-09-19T09:58:22;24.83;52.91
67093;SHT31;54011;50.772;7.730;2023-09-19T10:01:01;24.11;54.41
67093;SHT31;54011;50.772;7.730;2023-09-19T10:03:40;24.46;52.52
67093;SHT31;54011;50.772;7.730;2023-09-19T10:06:14;24.70;52.95
67093;SHT31;54011;50.772;7.730;2023-09-19T10:09:03;24.86;52.49
67093;SHT31;54011;50.772;7.730;2023-09-19T10:11:33;24.73;52.35
67093;SHT31;54011;50.772;7.730;2023-09-19T10:14:03;23.71;52.26
67093;SHT31;54011;50.772;7.730;2023-09-19T10:16:33;23.77;54.08
67093;SHT31;54011;50.772;7.730;2023-09-19T10:19:01;24.35;53.41
67093;SHT31;54011;50.772;7.730;2023-09-19T10:21:28;24.52;52.20
67093;SHT31;54011;50.772;7.730;2023-09-19T10:23:58;25.41;51.35
67093;SHT31;54011;50.772;7.730;2023-09-19T10:26:28;25.00;50.76
67093;SHT31;54011;50.772;7.730;2023-09-19T10:28:57;25.20;50.00
67093;SHT31;54011;50.772;7.730;2023-09-19T10:31:27;25.30;50.96
67093;SHT31;54011;50.772;7.730;2023-09-19T10:33:55;23.98;51.98
67093;SHT31;54011;50.772;7.730;2023-09-19T10:36:27;24.90;51.07
67093;SHT31;54011;50.772;7.730;2023-09-19T10:38:58;25.15;50.37
67093;SHT31;54011;50.772;7.730;2023-09-19T10:41:29;25.48;49.21
67093;SHT31;54011;50.772;7.730;2023-09-19T10:43:56;24.87;49.66
67093;SHT31;54011;50.772;7.730;2023-09-19T10:46:26;25.55;49.59
67093;SHT31;54011;50.772;7.730;2023-09-19T10:48:52;25.75;50.42
67093;SHT31;54011;50.772;7.730;2023-09-19T10:51:28;26.07;49.02
67093;SHT31;54011;50.772;7.730;2023-09-19T10:54:10;26.09;48.04
67093;SHT31;54011;50.772;7.730;2023-09-19T10:56:43;26.26;47.31
67093;SHT31;54011;50.772;7.730;2023-09-19T10:59:16;25.73;48.32
67093;SHT31;54011;50.772;7.730;2023-09-19T11:01:51;27.00;46.83
67093;SHT31;54011;50.772;7.730;2023-09-19T11:15:08;26.13;48.91
67093;SHT31;54011;50.772;7.730;2023-09-19T11:17:43;25.17;50.76
67093;SHT31;54011;50.772;7.730;2023-09-19T11:30:38;25.51;49.93
67093;SHT31;54011;50.772;7.730;2023-09-19T11:33:32;25.10;50.45
67093;SHT31;54011;50.772;7.730;2023-09-19T11:36:10;26.16;49.39
67093;SHT31;54011;50.772;7.730;2023-09-19T11:43:47;24.26;52.31
67093;SHT31;54011;50.772;7.730;2023-09-19T11:46:13;25.04;50.63
67093;SHT31;54011;50.772;7.730;2023-09-19T11:48:43;24.73;50.62
67093;SHT31;54011;50.772;7.730;2023-09-19T11:53:48;25.46;49.68
67093;SHT31;54011;50.772;7.730;2023-09-19T11:56:16;24.90;50.75
67093;SHT31;54011;50.772;7.730;2023-09-19T11:58:45;24.83;50.65
67093;SHT31;54011;50.772;7.730;2023-09-19T12:01:13;24.60;51.48
67093;SHT31;54011;50.772;7.730;2023-09-19T12:03:42;24.05;51.64
67093;SHT31;54011;50.772;7.730;2023-09-19T12:06:16;25.00;51.42
67093;SHT31;54011;50.772;7.730;2023-09-19T12:08:43;24.88;50.74
67093;SHT31;54011;50.772;7.730;2023-09-19T12:11:16;25.80;49.79
67093;SHT31;54011;50.772;7.730;2023-09-19T12:13:47;25.92;48.31
67093;SHT31;54011;50.772;7.730;2023-09-19T12:16:18;25.79;50.52
67093;SHT31;54011;50.772;7.730;2023-09-19T12:18:48;25.90;49.61
67093;SHT31;54011;50.772;7.730;2023-09-19T12:21:29;26.03;48.39
67093;SHT31;54011;50.772;7.730;2023-09-19T12:26:23;25.34;49.28
67093;SHT31;54011;50.772;7.730;2023-09-19T12:28:50;27.00;47.07
67093;SHT31;54011;50.772;7.730;2023-09-19T12:31:21;26.36;47.08
67093;SHT31;54011;50.772;7.730;2023-09-19T12:33:53;25.80;48.19
67093;SHT31;54011;50.772;7.730;2023-09-19T12:36:24;28.01;45.43
67093;SHT31;54011;50.772;7.730;2023-09-19T12:38:57;28.59;43.41
67093;SHT31;54011;50.772;7.730;2023-09-19T12:41:27;27.00;45.29
67093;SHT31;54011;50.772;7.730;2023-09-19T12:43:53;26.00;46.24
67093;SHT31;54011;50.772;7.730;2023-09-19T12:46:21;28.63;43.82
67093;SHT31;54011;50.772;7.730;2023-09-19T12:49:16;29.18;43.92
67093;SHT31;54011;50.772;7.730;2023-09-19T12:51:43;29.20;42.85
67093;SHT31;54011;50.772;7.730;2023-09-19T12:54:09;30.25;42.39
67093;SHT31;54011;50.772;7.730;2023-09-19T12:56:39;28.21;43.06
67093;SHT31;54011;50.772;7.730;2023-09-19T12:59:12;27.32;44.39
67093;SHT31;54011;50.772;7.730;2023-09-19T13:01:43;26.13;45.98
67093;SHT31;54011;50.772;7.730;2023-09-19T13:04:21;26.92;46.04
67093;SHT31;54011;50.772;7.730;2023-09-19T13:07:03;27.15;44.42
67093;SHT31;54011;50.772;7.730;2023-09-19T13:09:33;29.41;42.83
67093;SHT31;54011;50.772;7.730;2023-09-19T13:12:36;28.62;43.23
67093;SHT31;54011;50.772;7.730;2023-09-19T13:15:10;26.34;45.58
67093;SHT31;54011;50.772;7.730;2023-09-19T13:17:47;27.98;44.25
67093;SHT31;54011;50.772;7.730;2023-09-19T13:20:25;27.90;44.38
67093;SHT31;54011;50.772;7.730;2023-09-19T13:22:55;29.07;43.81
67093;SHT31;54011;50.772;7.730;2023-09-19T13:25:29;29.30;42.05
67093;SHT31;54011;50.772;7.730;2023-09-19T13:27:57;29.75;41.97
67093;SHT31;54011;50.772;7.730;2023-09-19T13:30:27;29.86;42.25
67093;SHT31;54011;50.772;7.730;2023-09-19T13:33:08;29.68;41.56
67093;SHT31;54011;50.772;7.730;2023-09-19T13:35:37;29.41;41.85
67093;SHT31;54011;50.772;7.730;2023-09-19T13:38:05;28.28;42.88
67093;SHT31;54011;50.772;7.730;2023-09-19T13:40:35;28.72;42.18
67093;SHT31;54011;50.772;7.730;2023-09-19T13:43:10;28.80;43.51
67093;SHT31;54011;50.772;7.730;2023-09-19T13:45:47;30.13;39.70
67093;SHT31;54011;50.772;7.730;2023-09-19T13:48:13;29.99;41.05
67093;SHT31;54011;50.772;7.730;2023-09-19T13:50:40;29.85;40.50
67093;SHT31;54011;50.772;7.730;2023-09-19T13:53:08;30.40;39.78
67093;SHT31;54011;50.772;7.730;2023-09-19T13:55:35;28.93;41.55
67093;SHT31;54011;50.772;7.730;2023-09-19T13:58:03;29.99;40.81
67093;SHT31;54011;50.772;7.730;2023-09-19T14:00:32;30.17;40.31
67093;SHT31;54011;50.772;7.730;2023-09-19T14:03:00;30.15;40.46
67093;SHT31;54011;50.772;7.730;2023-09-19T14:05:27;30.23;40.62
67093;SHT31;54011;50.772;7.730;2023-09-19T14:07:53;31.07;39.85
67093;SHT31;54011;50.772;7.730;2023-09-19T14:10:25;30.60;41.48
67093;SHT31;54011;50.772;7.730;2023-09-19T14:12:57;30.04;41.09
67093;SHT31;54011;50.772;7.730;2023-09-19T14:15:25;31.47;38.96
67093;SHT31;54011;50.772;7.730;2023-09-19T14:17:59;30.22;41.37
67093;SHT31;54011;50.772;7.730;2023-09-19T14:20:27;31.29;39.51
67093;SHT31;54011;50.772;7.730;2023-09-19T14:22:54;31.87;38.35
67093;SHT31;54011;50.772;7.730;2023-09-19T14:25:21;30.59;39.93
67093;SHT31;54011;50.772;7.730;2023-09-19T14:27:47;30.74;41.06
67093;SHT31;54011;50.772;7.730;2023-09-19T14:30:13;30.19;39.88
67093;SHT31;54011;50.772;7.730;2023-09-19T14:32:39;29.68;40.07
67093;SHT31;54011;50.772;7.730;2023-09-19T14:35:09;30.71;39.93
67093;SHT31;54011;50.772;7.730;2023-09-19T14:37:37;31.62;39.43
67093;SHT31;54011;50.772;7.730;2023-09-19T14:40:05;31.29;39.09
67093;SHT31;54011;50.772;7.730;2023-09-19T14:42:40;30.36;39.68
67093;SHT31;54011;50.772;7.730;2023-09-19T14:45:09;29.82;40.73
67093;SHT31;54011;50.772;7.730;2023-09-19T14:47:37;30.33;40.07
67093;SHT31;54011;50.772;7.730;2023-09-19T14:50:07;30.95;39.56
67093;SHT31;54011;50.772;7.730;2023-09-19T14:52:35;31.26;39.13
67093;SHT31;54011;50.772;7.730;2023-09-19T14:55:04;31.35;39.80
67093;SHT31;54011;50.772;7.730;2023-09-19T14:57:31;30.97;39.99
67093;SHT31;54011;50.772;7.730;2023-09-19T14:59:57;31.02;40.44
67093;SHT31;54011;50.772;7.730;2023-09-19T15:02:24;31.38;39.19
67093;SHT31;54011;50.772;7.730;2023-09-19T15:04:52;31.61;39.53
67093;SHT31;54011;50.772;7.730;2023-09-19T15:07:19;30.04;40.53
67093;SHT31;54011;50.772;7.730;2023-09-19T15:09:45;30.87;39.89
67093;SHT31;54011;50.772;7.730;2023-09-19T15:12:13;30.19;41.36
67093;SHT31;54011;50.772;7.730;2023-09-19T15:14:40;29.89;41.11
67093;SHT31;54011;50.772;7.730;2023-09-19T15:17:07;30.77;39.80
67093;SHT31;54011;50.772;7.730;2023-09-19T15:19:35;31.29;39.85
67093;SHT31;54011;50.772;7.730;2023-09-19T15:22:03;31.14;39.22
67093;SHT31;54011;50.772;7.730;2023-09-19T15:24:29;31.39;38.49
67093;SHT31;54011;50.772;7.730;2023-09-19T15:26:57;29.65;41.03
67093;SHT31;54011;50.772;7.730;2023-09-19T15:29:23;29.82;41.24
67093;SHT31;54011;50.772;7.730;2023-09-19T15:31:51;30.40;39.84
67093;SHT31;54011;50.772;7.730;2023-09-19T15:34:39;30.67;40.59
67093;SHT31;54011;50.772;7.730;2023-09-19T15:37:10;29.79;40.86
67093;SHT31;54011;50.772;7.730;2023-09-19T15:39:37;29.44;39.83
67093;SHT31;54011;50.772;7.730;2023-09-19T15:42:03;29.27;40.63
67093;SHT31;54011;50.772;7.730;2023-09-19T15:44:33;30.01;39.61
67093;SHT31;54011;50.772;7.730;2023-09-19T15:47:05;29.65;39.61
67093;SHT31;54011;50.772;7.730;2023-09-19T15:49:35;29.58;41.24
67093;SHT31;54011;50.772;7.730;2023-09-19T15:52:01;29.62;39.48
67093;SHT31;54011;50.772;7.730;2023-09-19T15:54:32;29.99;39.56
67093;SHT31;54011;50.772;7.730;2023-09-19T15:56:59;30.36;39.43
67093;SHT31;54011;50.772;7.730;2023-09-19T15:59:25;28.60;40.69
67093;SHT31;54011;50.772;7.730;2023-09-19T16:01:51;29.68;40.05
67093;SHT31;54011;50.772;7.730;2023-09-19T16:04:19;29.61;39.79
67093;SHT31;54011;50.772;7.730;2023-09-19T16:06:46;28.80;41.03
67093;SHT31;54011;50.772;7.730;2023-09-19T16:09:11;27.39;43.94
67093;SHT31;54011;50.772;7.730;2023-09-19T16:11:38;26.74;43.93
67093;SHT31;54011;50.772;7.730;2023-09-19T16:14:04;26.07;45.31
67093;SHT31;54011;50.772;7.730;2023-09-19T16:16:33;25.63;45.92
67093;SHT31;54011;50.772;7.730;2023-09-19T16:19:02;25.24;46.37
67093;SHT31;54011;50.772;7.730;2023-09-19T16:21:32;25.75;46.12
67093;SHT31;54011;50.772;7.730;2023-09-19T16:24:04;25.65;46.15
67093;SHT31;54011;50.772;7.730;2023-09-19T16:26:30;25.63;47.00
67093;SHT31;54011;50.772;7.730;2023-09-19T16:28:58;25.51;47.87
67093;SHT31;54011;50.772;7.730;2023-09-19T16:31:30;26.92;46.20
67093;SHT31;54011;50.772;7.730;2023-09-19T16:33:58;26.85;45.23
67093;SHT31;54011;50.772;7.730;2023-09-19T16:36:25;25.55;47.36
67093;SHT31;54011;50.772;7.730;2023-09-19T16:38:52;26.04;46.19
67093;SHT31;54011;50.772;7.730;2023-09-19T16:41:22;26.55;45.71
67093;SHT31;54011;50.772;7.730;2023-09-19T16:43:47;26.00;47.07